PDT,Max TemperatureF,Mean TemperatureF,Min TemperatureF,Max Dew PointF,MeanDew PointF,Min DewpointF,Max Humidity, Mean Humidity, Min Humidity, Max Sea Level PressureIn, Mean Sea Level PressureIn, Min Sea Level PressureIn, Max VisibilityMiles, Mean VisibilityMiles, Min VisibilityMiles, Max Wind SpeedMPH, Mean Wind SpeedMPH, Max Gust SpeedMPH,PrecipitationIn, CloudCover, Events, WindDirDegrees
2013-5-1,64,47,29,36,30,23,100,61,21,30.58,30.54,30.48,10,10,7,16,4,20,0.00,0,,40
2013-5-2,70,53,35,40,36,29,92,60,28,30.55,30.44,30.36,10,10,10,14,5,21,0.00,0,,27
2013-5-3,73,55,37,46,41,36,93,64,35,30.40,30.32,30.22,10,10,10,17,5,23,0.00,0,,30
2013-5-4,80,61,41,46,40,35,89,55,21,30.22,30.12,30.00,10,10,10,18,7,23,0.00,0,,42
2013-5-5,84,63,41,45,40,34,89,53,17,29.99,29.87,29.76,10,10,10,18,6,24,0.00,0,,43
2013-5-6,86,65,43,49,45,41,96,60,23,29.86,29.82,29.77,10,10,9,14,4,17,0.00,0,,355
2013-5-7,71,58,45,52,49,45,100,77,53,30.04,29.97,29.87,10,9,6,12,4,15,0.00,4,,189
2013-5-8,70,60,49,52,48,46,93,73,53,30.16,30.12,30.05,10,9,8,9,4,12,0.00,5,,186
2013-5-9,75,59,43,52,48,43,100,71,41,30.24,30.19,30.12,10,7,0,9,2,13,0.00,4,Fog,55
2013-5-10,82,62,42,55,47,41,100,70,39,30.22,30.18,30.12,10,5,0,10,2,12,0.00,1,Fog,36
2013-5-11,82,67,52,57,51,43,83,60,36,30.20,30.11,30.01,10,10,9,13,5,15,T,0,Rain,202
2013-5-12,70,63,56,56,55,54,93,75,57,30.11,30.08,30.04,10,10,6,13,6,18,0.04,8,Rain,228
2013-5-13,65,54,43,57,52,41,100,86,71,30.23,30.07,29.97,10,10,2,23,9,31,0.32,6,Rain,213
2013-5-14,65,55,44,45,42,36,92,64,36,30.25,30.19,30.13,10,10,9,12,3,13,0.00,3,,243
2013-5-15,59,49,39,52,45,39,100,79,57,30.13,30.08,30.03,10,9,1,13,5,16,0.01,6,Rain,202
2013-5-16,71,60,48,55,50,46,100,72,44,30.02,29.97,29.88,10,8,2,16,4,20,0.13,7,Rain,224
2013-5-17,63,55,47,52,48,45,100,78,56,30.09,30.02,29.98,10,10,7,14,7,20,0.04,7,Rain,209
2013-5-18,59,53,47,52,48,45,93,83,72,30.29,30.17,30.10,10,10,9,13,5,17,0.01,7,Rain,213
2013-5-19,66,56,45,49,47,44,100,74,48,30.41,30.37,30.30,10,10,10,9,3,12,0.00,7,,198
2013-5-20,68,55,42,48,45,42,100,73,45,30.38,30.18,29.94,10,9,4,12,2,15,0.13,6,Rain,307
2013-5-21,56,51,46,46,43,40,93,77,61,29.94,29.87,29.82,10,9,5,18,9,25,0.39,8,Rain,218
2013-5-22,49,46,42,46,43,40,96,86,76,29.96,29.91,29.88,10,9,6,14,8,17,0.18,7,Rain,205
2013-5-23,50,46,42,48,44,40,100,90,80,30.01,29.99,29.96,10,8,4,13,5,17,0.42,8,Rain,138
2013-5-24,57,52,46,51,47,45,100,86,72,30.07,30.02,29.98,10,9,5,15,4,19,0.34,7,Rain,203
2013-5-25,59,53,47,50,47,44,100,79,57,30.06,30.03,29.98,10,10,10,10,5,14,T,8,Rain,243
2013-5-26,62,56,50,54,51,48,96,84,72,30.01,29.99,29.96,10,8,2,12,3,15,0.16,8,Rain,304
2013-5-27,61,56,51,57,51,48,100,88,75,29.97,29.79,29.71,10,8,2,22,6,31,0.51,8,Rain,185
2013-5-28,63,57,50,50,48,45,96,76,55,29.89,29.86,29.78,10,9,4,18,7,25,0.05,8,Rain,221
2013-5-29,60,54,47,52,48,45,100,80,60,30.02,29.80,29.70,10,7,2,21,8,27,0.45,8,Rain,293
2013-5-30,60,54,47,51,47,45,93,82,71,30.27,30.14,30.03,10,10,6,16,8,21,0.03,7,Rain,219
2013-5-31,65,55,44,48,45,41,100,72,44,30.35,30.31,30.26,10,10,8,9,3,13,0.00,5,,338